Messwerte Bouaké

Temperatur

Temperatur
°C
1627898400 10.00 10.00 24
1627902000 11.00 11.00 26
1627905600 12.00 12.00 27
1627909200 13.00 13.00 27
1627912800 14.00 14.00 30
1627916400 15.00 15.00 29
1627920000 16.00 16.00
1627923600 17.00 17.00
1627927200 18.00 18.00 28
1627930800 19.00 19.00 26
1627934400 20.00 20.00 26
1627938000 21.00 21.00 26
1627941600 22.00 22.00 25
1627945200 23.00 23.00 25
1627948800 0.00 0.00 24
1627952400 1.00 1.00 23
1627956000 2.00 2.00 23
1627959600 3.00 3.00 23
1627963200 4.00 4.00
1627966800 5.00 5.00 22
1627970400 6.00 6.00 21
1627974000 7.00 7.00 21
1627977600 8.00 8.00 22
1627981200 9.00 9.00 22

Aktuellste Messwerte

Wettercharakter
Wetter: Nebel
Temperatur
22 °C
Feuchtigkeit
100 %
Wind
20 km/hWindrichtung: Südwest
Luftdruck
1018 hPa
Messzeit: 3. August 2021, 9.00Datenquelle: METAR

Weitere Messstationen in der Nähe

Messstation Temperatur Entfernung
Yamoussoukro 24 °C 97 km
Abidjan 26 °C 303 km
Bobo-Dioulasso 28 °C 391 km

Wind

Windrichtung Böen Mittelwind
° km/h km/h
1627898400 10.00 9.00 - 10.00 200° 15
1627902000 11.00 10.00 - 11.00 180° 10
1627905600 12.00 11.00 - 12.00 200° 15
1627909200 13.00 12.00 - 13.00 220° 10
1627912800 14.00 13.00 - 14.00 220° 15
1627916400 15.00 14.00 - 15.00 280° 10
1627920000 16.00 15.00 - 16.00
1627923600 17.00 16.00 - 17.00
1627927200 18.00 17.00 - 18.00 180° 5
1627930800 19.00 18.00 - 19.00 180° 5
1627934400 20.00 19.00 - 20.00 180° 5
1627938000 21.00 20.00 - 21.00 180° 5
1627941600 22.00 21.00 - 22.00 180° 5
1627945200 23.00 22.00 - 23.00 180° 5
1627948800 0.00 23.00 - 0.00 180° 5
1627952400 1.00 0.00 - 1.00 180° 5
1627956000 2.00 1.00 - 2.00 200° 5
1627959600 3.00 2.00 - 3.00 200° 5
1627963200 4.00 3.00 - 4.00
1627966800 5.00 4.00 - 5.00 220° 15
1627970400 6.00 5.00 - 6.00 220° 15
1627974000 7.00 6.00 - 7.00 220° 15
1627977600 8.00 7.00 - 8.00 220° 20
1627981200 9.00 8.00 - 9.00 240° 20

Ihre Wetterstation

Fehlt Ihre Wetterstation auf unserem Portal?

Schreiben Sie an network@meteonews.ch